Time;durP1;ratioP1;P1;durP2;ratioP2;P2;SDS_P1;SDS_P2;PMS_P1;PMS_P2;Temp;Humidity;BMP_temperature;BMP_pressure;BME280_temperature;BME280_humidity;BME280_pressure;Samples;Min_cycle;Max_cycle;Signal;HPM_P1;HPM_P2
2022/11/05 00:10:56;;;;;;;62.28;25.98;;;;;;;;;;6309808;22;20434;-82
2022/11/05 00:19:05;;;;;;;59.63;25.65;;;;;;;;;;6310091;22;20011;-79
2022/11/05 00:26:59;;;;;;;63.58;25.88;;;;;;;;;;6280655;22;20021;-81
2022/11/05 00:29:25;;;;;;;66.60;26.77;;;;;;;;;;6308528;22;20031;-78
2022/11/05 00:31:50;;;;;;;54.85;24.85;;;;;;;;;;6280664;22;20064;-78
2022/11/05 00:34:16;;;;;;;61.10;25.98;;;;;;;;;;6253968;22;20090;-79
2022/11/05 00:36:41;;;;;;;60.67;26.38;;;;;;;;;;6280389;22;20102;-79
2022/11/05 00:39:07;;;;;;;60.83;26.65;;;;;;;;;;6279991;22;19996;-80
2022/11/05 00:41:32;;;;;;;57.47;25.27;;;;;;;;;;6308013;22;20011;-79
2022/11/05 00:46:42;;;;;;;54.38;24.45;;;;;;;;;;6258010;22;20060;-80
2022/11/05 00:52:54;;;;;;;61.50;25.88;;;;;;;;;;6307363;22;20011;-79
2022/11/05 00:54:37;;;;;;;59.35;25.98;;;;;;;;;;6258715;22;20032;-79
2022/11/05 00:57:03;;;;;;;56.10;24.98;;;;;;;;;;6254515;22;20098;-79
2022/11/05 00:59:28;;;;;;;52.92;24.20;;;;;;;;;;6279861;22;20011;-79
2022/11/05 01:01:54;;;;;;;59.50;25.17;;;;;;;;;;6306841;22;19995;-79
2022/11/05 01:04:19;;;;;;;51.08;23.98;;;;;;;;;;6255041;22;20520;-80
2022/11/05 01:06:45;;;;;;;53.42;24.75;;;;;;;;;;6280384;22;20006;-80
2022/11/05 01:09:10;;;;;;;52.42;23.05;;;;;;;;;;6307317;22;20442;-79
2022/11/05 01:11:36;;;;;;;53.97;25.48;;;;;;;;;;6280029;22;20423;-80
2022/11/05 01:14:03;;;;;;;48.80;23.63;;;;;;;;;;6280807;22;20090;-79
2022/11/05 01:16:29;;;;;;;53.53;24.75;;;;;;;;;;6229279;22;20029;-79
2022/11/05 01:18:54;;;;;;;50.72;24.05;;;;;;;;;;6306993;22;20011;-79
2022/11/05 01:21:20;;;;;;;58.35;25.15;;;;;;;;;;6255283;22;20324;-79
2022/11/05 01:23:45;;;;;;;49.83;23.75;;;;;;;;;;6229757;22;20012;-80
2022/11/05 01:26:11;;;;;;;47.55;23.40;;;;;;;;;;6307330;22;20015;-81
2022/11/05 01:28:36;;;;;;;47.90;24.42;;;;;;;;;;6279362;22;20351;-79
2022/11/05 01:31:02;;;;;;;50.63;22.90;;;;;;;;;;6279285;22;20092;-79
2022/11/05 01:33:27;;;;;;;50.90;23.75;;;;;;;;;;6279185;22;20090;-80
2022/11/05 01:35:53;;;;;;;46.67;23.20;;;;;;;;;;6253000;22;20123;-79
2022/11/05 01:38:18;;;;;;;51.20;24.25;;;;;;;;;;6280176;22;20011;-79
2022/11/05 01:40:44;;;;;;;46.65;24.38;;;;;;;;;;6306784;22;20112;-79
2022/11/05 01:43:16;;;;;;;53.20;24.08;;;;;;;;;;6253801;22;20007;-79
2022/11/05 01:45:42;;;;;;;57.22;23.35;;;;;;;;;;6279914;22;20034;-78
2022/11/05 01:48:07;;;;;;;49.75;22.73;;;;;;;;;;6228235;22;19999;-80
2022/11/05 01:50:38;;;;;;;49.88;23.88;;;;;;;;;;6253975;22;20065;-80
2022/11/05 01:53:29;;;;;;;50.40;23.75;;;;;;;;;;6282917;22;20091;-78
2022/11/05 01:55:58;;;;;;;51.63;23.20;;;;;;;;;;6253720;22;20015;-79
2022/11/05 01:58:25;;;;;;;45.63;22.10;;;;;;;;;;6279997;22;20057;-80
2022/11/05 02:00:50;;;;;;;52.53;23.13;;;;;;;;;;6278937;22;20007;-78
2022/11/05 02:03:16;;;;;;;50.78;22.70;;;;;;;;;;6253990;22;20022;-79
2022/11/05 02:05:41;;;;;;;41.38;21.45;;;;;;;;;;6228921;22;20011;-79
2022/11/05 02:08:08;;;;;;;41.60;22.13;;;;;;;;;;6252965;22;20026;-79
2022/11/05 02:10:33;;;;;;;40.63;21.20;;;;;;;;;;6278914;22;20412;-79
2022/11/05 02:12:59;;;;;;;41.42;21.10;;;;;;;;;;6253382;22;20027;-79
2022/11/05 02:15:45;;;;;;;39.33;21.10;;;;;;;;;;6253439;22;20015;-79
2022/11/05 02:18:10;;;;;;;38.97;20.35;;;;;;;;;;6232799;22;20401;-80
2022/11/05 02:20:42;;;;;;;35.78;20.38;;;;;;;;;;6278181;22;19999;-79
2022/11/05 02:23:10;;;;;;;42.90;21.88;;;;;;;;;;6307164;22;20007;-80
2022/11/05 02:25:42;;;;;;;44.22;24.83;;;;;;;;;;6305597;22;20312;-79
2022/11/05 02:28:14;;;;;;;39.40;20.00;;;;;;;;;;6252136;22;20035;-80
2022/11/05 02:30:45;;;;;;;40.28;19.77;;;;;;;;;;6252378;22;20011;-80
2022/11/05 02:33:20;;;;;;;37.17;19.42;;;;;;;;;;6253060;22;20556;-79
2022/11/05 02:36:04;;;;;;;35.45;19.17;;;;;;;;;;6279130;22;20086;-79
2022/11/05 02:38:32;;;;;;;;;;;;;;;;;;6279823;22;20022;-79
2022/11/05 02:41:02;;;;;;;39.10;18.85;;;;;;;;;;6278828;22;19903;-78
2022/11/05 02:43:27;;;;;;;32.90;18.73;;;;;;;;;;6305923;22;20057;-80
2022/11/05 02:45:53;;;;;;;;;;;;;;;;;;6307619;22;20003;-80
2022/11/05 02:48:24;;;;;;;35.90;18.10;;;;;;;;;;6253332;22;19985;-80
2022/11/05 02:51:02;;;;;;;28.13;16.95;;;;;;;;;;6254348;22;20324;-79
2022/11/05 02:53:32;;;;;;;30.77;17.55;;;;;;;;;;6278930;22;20015;-80
2022/11/05 02:56:08;;;;;;;30.67;17.27;;;;;;;;;;6228278;22;20146;-79
2022/11/05 02:58:34;;;;;;;27.15;17.27;;;;;;;;;;6279992;22;20007;-80
2022/11/05 03:01:00;;;;;;;31.52;18.42;;;;;;;;;;6281026;22;20002;-79
2022/11/05 03:03:36;;;;;;;27.70;16.90;;;;;;;;;;6256141;22;20390;-79
2022/11/05 03:06:08;;;;;;;30.55;17.38;;;;;;;;;;6280701;22;20090;-78
2022/11/05 03:08:40;;;;;;;31.15;17.35;;;;;;;;;;6281599;22;20018;-78
2022/11/05 03:11:16;;;;;;;30.25;16.42;;;;;;;;;;6307380;22;20015;-78
2022/11/05 03:13:52;;;;;;;29.05;16.65;;;;;;;;;;6280120;22;20015;-79
2022/11/05 03:16:20;;;;;;;28.63;16.00;;;;;;;;;;6279874;22;20015;-79
2022/11/05 03:18:52;;;;;;;28.75;16.83;;;;;;;;;;6254875;22;19996;-79
2022/11/05 03:21:21;;;;;;;27.15;16.35;;;;;;;;;;6280560;22;20090;-80
2022/11/05 03:23:49;;;;;;;24.98;15.95;;;;;;;;;;6308384;22;19999;-79
2022/11/05 03:26:19;;;;;;;29.40;16.58;;;;;;;;;;6282207;22;20006;-79
2022/11/05 03:28:49;;;;;;;28.63;16.55;;;;;;;;;;6279794;22;20019;-80
2022/11/05 03:31:15;;;;;;;26.63;15.75;;;;;;;;;;6255420;22;20041;-78
2022/11/05 03:33:40;;;;;;;28.08;16.63;;;;;;;;;;6281457;22;20365;-79
2022/11/05 03:36:07;;;;;;;25.25;16.08;;;;;;;;;;6256519;22;20035;-79
2022/11/05 03:38:36;;;;;;;24.80;15.95;;;;;;;;;;6281288;22;20085;-80
2022/11/05 03:41:05;;;;;;;30.40;16.65;;;;;;;;;;6255984;22;20007;-79
2022/11/05 03:43:32;;;;;;;27.38;15.23;;;;;;;;;;6255665;22;20457;-80
2022/11/05 03:45:59;;;;;;;26.58;16.42;;;;;;;;;;6280753;22;20011;-79
2022/11/05 03:48:25;;;;;;;25.40;15.70;;;;;;;;;;6280479;22;20006;-80
2022/11/05 03:51:14;;;;;;;26.15;15.68;;;;;;;;;;6255280;22;20500;-79
2022/11/05 03:53:42;;;;;;;23.65;14.70;;;;;;;;;;6244320;22;20017;-79
2022/11/05 03:56:21;;;;;;;26.25;15.48;;;;;;;;;;6230520;22;20114;-79
2022/11/05 03:58:47;;;;;;;26.63;15.48;;;;;;;;;;6256817;22;20082;-79
2022/11/05 04:01:13;;;;;;;23.08;14.23;;;;;;;;;;6308823;22;19995;-78
2022/11/05 04:03:38;;;;;;;23.48;15.70;;;;;;;;;;6255888;22;20007;-79
2022/11/05 04:14:16;;;;;;;25.67;15.05;;;;;;;;;;6280754;22;20340;-79
2022/11/05 04:24:54;;;;;;;22.75;14.10;;;;;;;;;;6258252;22;20011;-80
2022/11/05 04:27:20;;;;;;;23.38;14.90;;;;;;;;;;6307621;22;19997;-79
2022/11/05 04:32:29;;;;;;;24.67;14.32;;;;;;;;;;6285529;22;20015;-80
2022/11/05 04:34:55;;;;;;;21.30;13.93;;;;;;;;;;6308039;22;20419;-79
2022/11/05 04:37:20;;;;;;;23.40;14.70;;;;;;;;;;6254234;22;20442;-80
2022/11/05 04:39:46;;;;;;;22.45;15.15;;;;;;;;;;6281875;22;20006;-79
2022/11/05 04:42:11;;;;;;;23.42;16.25;;;;;;;;;;6282240;22;20007;-79
2022/11/05 04:44:37;;;;;;;24.73;15.65;;;;;;;;;;6309753;22;20324;-80
2022/11/05 04:47:02;;;;;;;23.95;15.15;;;;;;;;;;6280792;22;20015;-82
2022/11/05 04:49:28;;;;;;;25.08;15.32;;;;;;;;;;6308388;22;20127;-80
2022/11/05 04:51:53;;;;;;;24.67;15.45;;;;;;;;;;6308313;22;20011;-81
2022/11/05 04:54:19;;;;;;;24.08;15.40;;;;;;;;;;6255335;22;20029;-80
2022/11/05 04:56:44;;;;;;;25.55;16.13;;;;;;;;;;6283269;22;20462;-79
2022/11/05 04:59:10;;;;;;;36.72;16.98;;;;;;;;;;6308562;22;20358;-81
2022/11/05 05:01:35;;;;;;;29.42;18.77;;;;;;;;;;6281563;22;20003;-82
2022/11/05 05:04:01;;;;;;;30.83;18.88;;;;;;;;;;6308854;22;19995;-80
2022/11/05 05:06:26;;;;;;;29.58;18.63;;;;;;;;;;6308550;22;20011;-79
2022/11/05 05:08:52;;;;;;;29.75;18.55;;;;;;;;;;6281093;22;20082;-78
2022/11/05 05:11:18;;;;;;;26.92;18.00;;;;;;;;;;6255416;22;20443;-79
2022/11/05 05:13:44;;;;;;;25.85;16.55;;;;;;;;;;6281635;22;20056;-78
2022/11/05 05:16:20;;;;;;;26.85;16.27;;;;;;;;;;6255745;22;20443;-80
2022/11/05 05:18:45;;;;;;;24.10;15.45;;;;;;;;;;6281361;22;20011;-80
2022/11/05 05:23:55;;;;;;;27.90;14.48;;;;;;;;;;6311640;22;20030;-81
2022/11/05 05:26:21;;;;;;;24.77;14.18;;;;;;;;;;6291101;22;20006;-81
2022/11/05 05:28:46;;;;;;;24.13;14.25;;;;;;;;;;6283394;22;20017;-79
2022/11/05 05:31:12;;;;;;;25.83;14.52;;;;;;;;;;6282149;22;20335;-79
2022/11/05 05:33:37;;;;;;;21.42;14.32;;;;;;;;;;6257801;22;20021;-80
2022/11/05 05:36:03;;;;;;;26.35;15.05;;;;;;;;;;6309643;22;20384;-80
2022/11/05 05:38:28;;;;;;;24.42;14.63;;;;;;;;;;6231652;22;20018;-80
2022/11/05 05:40:58;;;;;;;23.17;14.35;;;;;;;;;;6281558;22;20009;-80
2022/11/05 05:43:24;;;;;;;21.50;14.07;;;;;;;;;;6281123;22;20030;-79
2022/11/05 05:45:50;;;;;;;23.55;13.93;;;;;;;;;;6279884;22;20038;-79
2022/11/05 05:48:15;;;;;;;26.25;13.35;;;;;;;;;;6255568;22;20610;-80
2022/11/05 05:50:41;;;;;;;24.02;13.38;;;;;;;;;;6281971;22;20025;-80
2022/11/05 05:53:06;;;;;;;23.35;13.85;;;;;;;;;;6256708;22;20041;-80
2022/11/05 05:55:32;;;;;;;31.20;14.60;;;;;;;;;;6256421;22;20046;-80
2022/11/05 05:57:58;;;;;;;28.83;14.20;;;;;;;;;;6281627;22;20007;-80
2022/11/05 06:00:23;;;;;;;24.00;13.25;;;;;;;;;;6281578;22;20066;-79
2022/11/05 06:02:49;;;;;;;31.85;16.80;;;;;;;;;;6309161;22;20336;-81
2022/11/05 06:05:14;;;;;;;25.40;13.45;;;;;;;;;;6281730;22;20094;-80
2022/11/05 06:07:40;;;;;;;24.60;13.38;;;;;;;;;;6281172;22;20031;-80
2022/11/05 06:10:06;;;;;;;22.75;13.55;;;;;;;;;;6281823;22;20014;-80
2022/11/05 06:12:31;;;;;;;23.38;13.20;;;;;;;;;;6256004;22;20006;-80
2022/11/05 06:14:57;;;;;;;34.17;14.07;;;;;;;;;;6229593;22;20011;-79
2022/11/05 06:17:23;;;;;;;39.28;15.07;;;;;;;;;;6307625;22;20464;-80
2022/11/05 06:19:48;;;;;;;23.42;14.40;;;;;;;;;;6282572;22;20328;-79
2022/11/05 06:22:14;;;;;;;26.08;14.63;;;;;;;;;;6308676;22;20003;-80
2022/11/05 06:24:40;;;;;;;25.10;14.18;;;;;;;;;;6281197;22;20007;-80
2022/11/05 06:27:05;;;;;;;30.65;14.23;;;;;;;;;;6255069;22;20069;-80
2022/11/05 06:29:31;;;;;;;28.02;15.07;;;;;;;;;;6279646;22;20018;-80
2022/11/05 06:31:56;;;;;;;28.20;14.98;;;;;;;;;;6255307;22;20007;-80
2022/11/05 06:34:22;;;;;;;25.98;14.52;;;;;;;;;;6307821;22;20011;-81
2022/11/05 06:36:47;;;;;;;28.05;14.98;;;;;;;;;;6283635;22;20339;-81
2022/11/05 06:39:13;;;;;;;24.02;14.02;;;;;;;;;;6283491;22;20035;-82
2022/11/05 06:41:39;;;;;;;33.22;20.83;;;;;;;;;;6283372;22;20405;-81
2022/11/05 06:44:04;;;;;;;28.25;14.27;;;;;;;;;;6258655;22;20011;-81
2022/11/05 06:46:30;;;;;;;31.38;15.68;;;;;;;;;;6259139;22;19999;-80
2022/11/05 06:48:55;;;;;;;23.25;13.57;;;;;;;;;;6257807;22;20018;-81
2022/11/05 06:51:21;;;;;;;25.20;14.18;;;;;;;;;;6284005;22;20044;-80
2022/11/05 06:53:46;;;;;;;24.85;14.13;;;;;;;;;;6281995;22;20011;-79
2022/11/05 06:56:12;;;;;;;20.90;13.50;;;;;;;;;;6251202;22;20385;-80
2022/11/05 06:58:37;;;;;;;24.00;13.25;;;;;;;;;;6276676;22;20038;-79
2022/11/05 07:01:04;;;;;;;21.38;13.70;;;;;;;;;;6276629;22;20012;-82
2022/11/05 07:03:29;;;;;;;27.65;13.77;;;;;;;;;;6277068;22;20011;-80
2022/11/05 07:05:55;;;;;;;27.20;14.68;;;;;;;;;;6251574;22;20023;-80
2022/11/05 07:08:20;;;;;;;27.55;13.43;;;;;;;;;;6277808;22;20035;-80
2022/11/05 07:10:46;;;;;;;18.63;11.82;;;;;;;;;;6255692;22;20062;-80
2022/11/05 07:13:12;;;;;;;21.15;11.98;;;;;;;;;;6276773;22;20046;-81
2022/11/05 07:15:37;;;;;;;30.10;19.52;;;;;;;;;;6278729;22;20008;-81
2022/11/05 07:18:04;;;;;;;21.40;12.40;;;;;;;;;;6251326;22;20014;-80
2022/11/05 07:20:29;;;;;;;;;;;;;;;;;;6279468;22;20002;-80
2022/11/05 07:23:01;;;;;;;18.95;11.23;;;;;;;;;;6276817;22;19947;-80
2022/11/05 07:25:28;;;;;;;19.83;11.50;;;;;;;;;;6277981;22;20412;-82
2022/11/05 07:27:53;;;;;;;;;;;;;;;;;;6254788;22;20029;-81
2022/11/05 07:30:19;;;;;;;18.10;10.73;;;;;;;;;;6281201;22;20417;-81
2022/11/05 07:32:44;;;;;;;18.17;10.13;;;;;;;;;;6256386;22;20006;-81
2022/11/05 07:35:10;;;;;;;19.02;10.77;;;;;;;;;;6279434;22;20007;-81
2022/11/05 07:37:45;;;;;;;18.38;10.80;;;;;;;;;;6251991;22;20008;-81
2022/11/05 07:40:11;;;;;;;19.00;10.43;;;;;;;;;;6278583;22;20008;-81
2022/11/05 07:42:36;;;;;;;;;;;;;;;;;;6278260;22;19996;-81
2022/11/05 07:45:02;;;;;;;20.55;10.57;;;;;;;;;;6281737;22;19956;-81
2022/11/05 07:47:28;;;;;;;21.67;11.10;;;;;;;;;;6281136;22;20070;-81
2022/11/05 07:49:53;;;;;;;19.02;10.60;;;;;;;;;;6254365;22;20007;-81
2022/11/05 07:52:19;;;;;;;18.92;9.98;;;;;;;;;;6254612;22;19996;-81
2022/11/05 07:54:44;;;;;;;17.63;10.93;;;;;;;;;;6261473;22;20093;-81
2022/11/05 07:57:10;;;;;;;16.80;10.75;;;;;;;;;;6260233;22;20022;-81
2022/11/05 07:59:35;;;;;;;18.08;10.70;;;;;;;;;;6261092;22;20511;-81
2022/11/05 08:02:01;;;;;;;18.15;10.50;;;;;;;;;;6261635;22;20061;-82
2022/11/05 08:04:26;;;;;;;18.65;11.45;;;;;;;;;;6260224;22;20443;-80
2022/11/05 08:06:52;;;;;;;17.60;11.52;;;;;;;;;;6262177;22;20431;-79
2022/11/05 08:09:17;;;;;;;15.35;10.80;;;;;;;;;;6261983;22;20015;-81
2022/11/05 08:11:43;;;;;;;19.60;11.38;;;;;;;;;;6260574;22;20011;-81
2022/11/05 08:14:08;;;;;;;16.25;11.32;;;;;;;;;;6259859;22;20026;-81
2022/11/05 08:16:34;;;;;;;21.90;12.32;;;;;;;;;;6286615;22;20007;-81
2022/11/05 08:19:00;;;;;;;24.08;11.60;;;;;;;;;;6236445;22;20014;-81
2022/11/05 08:21:25;;;;;;;16.73;11.50;;;;;;;;;;6236288;22;19999;-81
2022/11/05 08:23:51;;;;;;;19.13;12.88;;;;;;;;;;6233796;22;20016;-80
2022/11/05 08:26:16;;;;;;;24.08;13.52;;;;;;;;;;6287262;22;20000;-82
2022/11/05 08:28:42;;;;;;;18.17;12.13;;;;;;;;;;6311768;22;20045;-80
2022/11/05 08:31:08;;;;;;;19.10;11.50;;;;;;;;;;6285810;22;20401;-81
2022/11/05 08:33:33;;;;;;;16.15;11.20;;;;;;;;;;6262973;22;19991;-80
2022/11/05 08:36:02;;;;;;;21.70;13.05;;;;;;;;;;6263089;22;20004;-81
2022/11/05 08:38:28;;;;;;;25.63;13.82;;;;;;;;;;6258552;22;20549;-81
2022/11/05 08:40:55;;;;;;;20.08;12.95;;;;;;;;;;6233189;22;19995;-80
2022/11/05 08:43:21;;;;;;;19.67;12.50;;;;;;;;;;6259809;22;20007;-80
2022/11/05 08:45:46;;;;;;;15.43;11.68;;;;;;;;;;6259822;22;20005;-81
2022/11/05 08:48:13;;;;;;;15.45;11.80;;;;;;;;;;6258430;22;20482;-81
2022/11/05 08:50:39;;;;;;;19.98;11.68;;;;;;;;;;6284182;22;20003;-82
2022/11/05 08:53:05;;;;;;;17.48;11.27;;;;;;;;;;6283371;22;20039;-79
2022/11/05 08:55:30;;;;;;;19.98;10.57;;;;;;;;;;6259401;22;20015;-80
2022/11/05 08:57:56;;;;;;;15.68;10.57;;;;;;;;;;6261436;22;20055;-79
2022/11/05 09:00:22;;;;;;;18.20;11.05;;;;;;;;;;6259607;22;19999;-81
2022/11/05 09:02:48;;;;;;;15.30;10.35;;;;;;;;;;6234395;22;20030;-82
2022/11/05 09:05:13;;;;;;;16.67;10.63;;;;;;;;;;6285164;22;20053;-80
2022/11/05 09:08:04;;;;;;;17.60;10.80;;;;;;;;;;6269746;22;20018;-80
2022/11/05 09:10:30;;;;;;;22.13;10.82;;;;;;;;;;6262194;22;20011;-81
2022/11/05 09:12:55;;;;;;;14.93;9.68;;;;;;;;;;6235917;22;20056;-80
2022/11/05 09:15:22;;;;;;;17.45;9.45;;;;;;;;;;6286045;22;20015;-81
2022/11/05 09:17:47;;;;;;;15.48;8.85;;;;;;;;;;6259361;22;20002;-82
2022/11/05 09:20:13;;;;;;;17.05;9.65;;;;;;;;;;6286944;22;20011;-80
2022/11/05 09:22:38;;;;;;;21.38;11.95;;;;;;;;;;6236755;22;20122;-81
2022/11/05 09:25:04;;;;;;;22.35;12.15;;;;;;;;;;6264217;22;20011;-81
2022/11/05 09:27:30;;;;;;;22.13;11.93;;;;;;;;;;6260589;22;20311;-82
2022/11/05 09:29:56;;;;;;;15.70;10.65;;;;;;;;;;6260093;22;20011;-81
2022/11/05 09:32:22;;;;;;;16.17;10.30;;;;;;;;;;6258977;22;20003;-83
2022/11/05 09:34:48;;;;;;;17.33;10.68;;;;;;;;;;6285874;22;20502;-80
2022/11/05 09:37:14;;;;;;;21.90;10.43;;;;;;;;;;6311653;22;20427;-81
2022/11/05 09:39:40;;;;;;;18.30;10.57;;;;;;;;;;6262686;22;20056;-82
2022/11/05 09:42:06;;;;;;;14.48;10.00;;;;;;;;;;6260450;22;19999;-80
2022/11/05 09:44:34;;;;;;;19.33;10.88;;;;;;;;;;6288498;22;20011;-82
2022/11/05 09:47:01;;;;;;;21.75;10.43;;;;;;;;;;6286822;22;20003;-81
2022/11/05 09:49:38;;;;;;;17.42;10.27;;;;;;;;;;6261008;22;20482;-81
2022/11/05 09:52:04;;;;;;;14.73;9.73;;;;;;;;;;6264008;22;20011;-81
2022/11/05 09:54:33;;;;;;;15.27;10.25;;;;;;;;;;6263049;22;20081;-80
2022/11/05 09:56:59;;;;;;;13.50;9.90;;;;;;;;;;6262222;22;20458;-82
2022/11/05 09:59:44;;;;;;;17.52;10.75;;;;;;;;;;6260279;22;20003;-81
2022/11/05 10:02:16;;;;;;;20.20;10.73;;;;;;;;;;6285874;22;20347;-82
2022/11/05 10:04:42;;;;;;;15.25;10.05;;;;;;;;;;6259005;22;20427;-80
2022/11/05 10:07:07;;;;;;;15.88;11.10;;;;;;;;;;6261151;22;20095;-82
2022/11/05 10:09:44;;;;;;;15.60;9.77;;;;;;;;;;6287285;22;20007;-82
2022/11/05 10:12:12;;;;;;;15.82;9.63;;;;;;;;;;6235027;22;20011;-81
2022/11/05 10:15:01;;;;;;;16.23;9.63;;;;;;;;;;6286899;22;20116;-81
2022/11/05 10:17:26;;;;;;;20.13;10.65;;;;;;;;;;6260154;22;20011;-82
2022/11/05 10:19:57;;;;;;;16.58;10.10;;;;;;;;;;6286892;22;20006;-80
2022/11/05 10:22:23;;;;;;;13.05;10.15;;;;;;;;;;6288079;22;20007;-80
2022/11/05 10:24:49;;;;;;;11.93;8.88;;;;;;;;;;6261116;22;20041;-81
2022/11/05 10:27:24;;;;;;;12.15;9.88;;;;;;;;;;6235446;22;20011;-80
2022/11/05 10:29:50;;;;;;;17.23;9.88;;;;;;;;;;6259090;22;20051;-81
2022/11/05 10:32:26;;;;;;;18.05;10.93;;;;;;;;;;6259441;22;20042;-81
2022/11/05 10:34:53;;;;;;;20.05;11.65;;;;;;;;;;6286277;22;20061;-82
2022/11/05 10:37:18;;;;;;;15.60;10.48;;;;;;;;;;6260185;22;20003;-84
2022/11/05 10:39:44;;;;;;;22.13;12.32;;;;;;;;;;6285799;22;20431;-81
2022/11/05 10:42:44;;;;;;;15.25;11.43;;;;;;;;;;6313024;22;19996;-81
2022/11/05 10:45:13;;;;;;;18.92;11.38;;;;;;;;;;6192410;23;20543;-82
2022/11/05 10:47:59;;;;;;;20.10;12.45;;;;;;;;;;6268483;22;20493;-81
2022/11/05 10:50:25;;;;;;;19.00;10.70;;;;;;;;;;6264280;22;20011;-81
2022/11/05 10:52:51;;;;;;;14.80;9.75;;;;;;;;;;6234183;22;19996;-81
2022/11/05 10:55:22;;;;;;;14.60;10.18;;;;;;;;;;6284429;22;20042;-81
2022/11/05 10:57:48;;;;;;;29.05;16.38;;;;;;;;;;6261790;22;20011;-80
2022/11/05 11:00:14;;;;;;;27.30;12.15;;;;;;;;;;6260647;22;20435;-83
2022/11/05 11:02:46;;;;;;;18.85;9.93;;;;;;;;;;6310500;22;20343;-81
2022/11/05 11:05:25;;;;;;;23.30;9.20;;;;;;;;;;6260834;22;20090;-81
2022/11/05 11:08:20;;;;;;;14.05;8.70;;;;;;;;;;6260668;22;20451;-81
2022/11/05 11:10:53;;;;;;;15.82;9.05;;;;;;;;;;6265048;22;20030;-82
2022/11/05 11:13:20;;;;;;;16.48;8.68;;;;;;;;;;6256437;22;20074;-81
2022/11/05 11:15:45;;;;;;;14.30;8.05;;;;;;;;;;6284875;22;20014;-82
2022/11/05 11:18:30;;;;;;;14.40;9.43;;;;;;;;;;6260544;22;20011;-81
2022/11/05 11:21:06;;;;;;;14.77;9.15;;;;;;;;;;6261354;22;20062;-82
2022/11/05 11:23:35;;;;;;;14.73;9.73;;;;;;;;;;6236882;22;20346;-80
2022/11/05 11:26:01;;;;;;;16.98;9.73;;;;;;;;;;6260987;22;20240;-81
2022/11/05 11:28:30;;;;;;;16.00;10.55;;;;;;;;;;6262248;22;20370;-80
2022/11/05 11:31:15;;;;;;;17.05;10.68;;;;;;;;;;6263953;22;19999;-80
2022/11/05 11:33:41;;;;;;;16.30;10.25;;;;;;;;;;6314568;22;20034;-81
2022/11/05 11:36:08;;;;;;;15.80;9.57;;;;;;;;;;6286757;22;20082;-80
2022/11/05 11:38:36;;;;;;;18.77;9.15;;;;;;;;;;6236728;22;20007;-83
2022/11/05 11:41:25;;;;;;;18.02;10.00;;;;;;;;;;6263029;22;20014;-80
2022/11/05 11:43:55;;;;;;;21.23;10.80;;;;;;;;;;6249880;22;20010;-81
2022/11/05 11:46:21;;;;;;;17.92;9.38;;;;;;;;;;6262716;22;20019;-80
2022/11/05 11:48:47;;;;;;;14.35;8.98;;;;;;;;;;6261770;22;20351;-80
2022/11/05 11:51:17;;;;;;;17.42;9.65;;;;;;;;;;6262965;22;20003;-81
2022/11/05 11:53:42;;;;;;;17.33;9.32;;;;;;;;;;6262490;22;20044;-81
2022/11/05 11:56:14;;;;;;;16.33;9.98;;;;;;;;;;6236451;22;20458;-81
2022/11/05 11:58:44;;;;;;;17.83;10.27;;;;;;;;;;6287002;22;20086;-81
2022/11/05 12:01:16;;;;;;;15.30;9.02;;;;;;;;;;6287761;22;20052;-81
2022/11/05 12:03:42;;;;;;;16.95;9.45;;;;;;;;;;6261674;22;20017;-81
2022/11/05 12:06:11;;;;;;;15.60;10.07;;;;;;;;;;6315201;22;20030;-81
2022/11/05 12:08:51;;;;;;;18.55;10.68;;;;;;;;;;6288686;22;20456;-81
2022/11/05 12:11:22;;;;;;;18.58;11.50;;;;;;;;;;6261149;22;20011;-81
2022/11/05 12:13:50;;;;;;;15.82;10.52;;;;;;;;;;6260024;22;20145;-81
2022/11/05 12:16:20;;;;;;;18.52;11.77;;;;;;;;;;6313262;22;20063;-80
2022/11/05 12:18:53;;;;;;;15.60;11.30;;;;;;;;;;6259668;22;20007;-79
2022/11/05 12:21:26;;;;;;;20.33;11.18;;;;;;;;;;6261318;22;20026;-80
2022/11/05 12:24:10;;;;;;;16.60;10.90;;;;;;;;;;6261084;22;20038;-81
2022/11/05 12:26:36;;;;;;;14.95;11.65;;;;;;;;;;6289667;22;20023;-81
2022/11/05 12:29:09;;;;;;;16.60;10.63;;;;;;;;;;6288915;22;20003;-81
2022/11/05 12:31:44;;;;;;;16.42;10.45;;;;;;;;;;6264705;22;20038;-81
2022/11/05 12:34:21;;;;;;;17.27;10.73;;;;;;;;;;6239660;22;20007;-80
2022/11/05 12:37:15;;;;;;;15.93;10.57;;;;;;;;;;6271633;22;20489;-81
2022/11/05 12:39:41;;;;;;;15.15;9.93;;;;;;;;;;6261252;22;20007;-81
2022/11/05 12:42:25;;;;;;;14.57;9.52;;;;;;;;;;6287574;22;20470;-80
2022/11/05 12:44:57;;;;;;;13.23;10.50;;;;;;;;;;6318268;22;20011;-80
2022/11/05 12:47:26;;;;;;;15.20;10.48;;;;;;;;;;6262860;22;20094;-81
2022/11/05 12:49:51;;;;;;;13.80;9.82;;;;;;;;;;6315611;22;20049;-80
2022/11/05 12:52:20;;;;;;;16.48;9.73;;;;;;;;;;6287990;22;20019;-80
2022/11/05 12:54:55;;;;;;;12.65;10.10;;;;;;;;;;6288155;22;20023;-81
2022/11/05 12:57:20;;;;;;;13.25;10.23;;;;;;;;;;6287026;22;20015;-80
2022/11/05 12:59:52;;;;;;;13.45;10.13;;;;;;;;;;6260872;22;20537;-81
2022/11/05 13:02:18;;;;;;;14.85;10.77;;;;;;;;;;6286238;22;20447;-81
2022/11/05 13:05:02;;;;;;;17.35;11.63;;;;;;;;;;6262075;22;20078;-80
2022/11/05 13:07:29;;;;;;;13.52;10.80;;;;;;;;;;6314235;22;20007;-81
2022/11/05 13:09:56;;;;;;;13.85;11.07;;;;;;;;;;6260787;22;20081;-81
2022/11/05 13:12:22;;;;;;;16.92;10.93;;;;;;;;;;6259551;22;20466;-80
2022/11/05 13:14:49;;;;;;;20.50;12.25;;;;;;;;;;6261996;22;20007;-81
2022/11/05 13:17:25;;;;;;;19.83;10.90;;;;;;;;;;6315020;22;20438;-81
2022/11/05 13:19:54;;;;;;;16.67;10.80;;;;;;;;;;6236143;22;20343;-82
2022/11/05 13:22:32;;;;;;;17.35;10.07;;;;;;;;;;6235161;22;19995;-80
2022/11/05 13:25:00;;;;;;;26.55;11.30;;;;;;;;;;6286136;22;20404;-80
2022/11/05 13:27:37;;;;;;;16.25;10.50;;;;;;;;;;6261958;22;20003;-81
2022/11/05 13:30:04;;;;;;;18.45;10.57;;;;;;;;;;6262018;22;20014;-81
2022/11/05 13:32:30;;;;;;;14.15;9.40;;;;;;;;;;6260412;22;20023;-81
2022/11/05 13:34:57;;;;;;;22.52;10.68;;;;;;;;;;6260808;22;20011;-81
2022/11/05 13:40:08;;;;;;;14.65;10.15;;;;;;;;;;6313119;22;20014;-82
2022/11/05 13:42:34;;;;;;;;;;;;;;;;;;6287909;22;20421;-80
2022/11/05 13:45:11;;;;;;;13.15;9.68;;;;;;;;;;6259906;22;19911;-82
2022/11/05 13:47:37;;;;;;;15.00;10.07;;;;;;;;;;6262278;22;20011;-82
2022/11/05 13:50:32;;;;;;;17.60;10.82;;;;;;;;;;6260838;22;20048;-82
2022/11/05 13:52:57;;;;;;;14.85;9.55;;;;;;;;;;6293117;22;20008;-82
2022/11/05 13:55:23;;;;;;;14.00;9.63;;;;;;;;;;6286643;22;20332;-82
2022/11/05 13:57:48;;;;;;;13.10;9.23;;;;;;;;;;6286243;22;20027;-82
2022/11/05 14:00:24;;;;;;;26.80;10.13;;;;;;;;;;6287046;22;19995;-80
2022/11/05 14:02:52;;;;;;;14.18;9.50;;;;;;;;;;6234820;22;20007;-81
2022/11/05 14:05:28;;;;;;;13.73;9.05;;;;;;;;;;6260108;22;20028;-80
2022/11/05 14:07:54;;;;;;;15.20;9.27;;;;;;;;;;6285978;22;20007;-82
2022/11/05 14:10:25;;;;;;;13.85;8.40;;;;;;;;;;6261354;22;20516;-81
2022/11/05 14:12:51;;;;;;;11.60;8.23;;;;;;;;;;6263435;22;20392;-79
2022/11/05 14:15:17;;;;;;;;;;;;;;;;;;6261082;22;20006;-80
2022/11/05 14:18:12;;;;;;;12.18;8.38;;;;;;;;;;6314840;22;19937;-81
2022/11/05 14:20:40;;;;;;;15.63;10.00;;;;;;;;;;6264375;22;20038;-80
2022/11/05 14:23:24;;;;;;;15.73;8.93;;;;;;;;;;6258442;22;20427;-80
2022/11/05 14:25:57;;;;;;;14.88;8.65;;;;;;;;;;6284738;22;20007;-81
2022/11/05 14:28:37;;;;;;;12.10;8.38;;;;;;;;;;6286729;22;20011;-81
2022/11/05 14:31:11;;;;;;;10.43;7.72;;;;;;;;;;6312559;22;20454;-81
2022/11/05 14:33:37;;;;;;;23.92;7.95;;;;;;;;;;6286304;22;20003;-82
2022/11/05 14:36:32;;;;;;;11.38;7.68;;;;;;;;;;6235184;22;20010;-81
2022/11/05 14:39:13;;;;;;;9.48;7.50;;;;;;;;;;6240790;22;20059;-80
2022/11/05 14:41:52;;;;;;;12.88;7.88;;;;;;;;;;6284855;22;20007;-80
2022/11/05 14:44:17;;;;;;;11.25;7.88;;;;;;;;;;6234859;22;20007;-81
2022/11/05 14:46:47;;;;;;;10.13;7.47;;;;;;;;;;6258628;22;20048;-81
2022/11/05 14:49:25;;;;;;;10.27;7.78;;;;;;;;;;6233735;22;20015;-81
2022/11/05 14:51:55;;;;;;;12.65;8.77;;;;;;;;;;6261207;22;20018;-81
2022/11/05 14:54:21;;;;;;;13.55;8.38;;;;;;;;;;6236204;22;20011;-81
2022/11/05 14:56:47;;;;;;;13.38;8.25;;;;;;;;;;6285359;22;20015;-80
2022/11/05 14:59:30;;;;;;;11.57;9.10;;;;;;;;;;6260185;22;20007;-81
2022/11/05 15:01:55;;;;;;;13.40;8.82;;;;;;;;;;6285323;22;20007;-81
2022/11/05 15:04:27;;;;;;;11.75;9.07;;;;;;;;;;6285763;22;20000;-82
2022/11/05 15:07:13;;;;;;;13.68;9.57;;;;;;;;;;6284308;22;20075;-80
2022/11/05 15:10:08;;;;;;;13.38;8.25;;;;;;;;;;6269174;22;20015;-81
2022/11/05 15:12:36;;;;;;;10.27;7.90;;;;;;;;;;6240342;22;20015;-80
2022/11/05 15:15:16;;;;;;;11.40;7.90;;;;;;;;;;6260584;22;20003;-81
2022/11/05 15:17:56;;;;;;;10.80;7.80;;;;;;;;;;6285578;22;20023;-80
2022/11/05 15:20:42;;;;;;;13.75;9.05;;;;;;;;;;6287152;22;20090;-81
2022/11/05 15:23:09;;;;;;;9.80;7.80;;;;;;;;;;6289192;22;20011;-82
2022/11/05 15:25:43;;;;;;;9.88;7.05;;;;;;;;;;6260309;22;20085;-80